Time;durP1;ratioP1;P1;durP2;ratioP2;P2;SDS_P1;SDS_P2;PMS_P1;PMS_P2;Temp;Humidity;BMP_temperature;BMP_pressure;BME280_temperature;BME280_humidity;BME280_pressure;Samples;Min_cycle;Max_cycle;Signal;HPM_P1;HPM_P2
2023/01/10 00:00:38;;;;;;;15.40;7.97;;;;;;;6.24;75.38;97563.53;4966917;28;20050;-68
2023/01/10 00:03:08;;;;;;;16.77;8.77;;;;;;;6.24;75.06;97563.53;4997310;28;20081;-68
2023/01/10 00:05:35;;;;;;;15.27;8.15;;;;;;;6.23;75.29;97560.00;4982295;28;20033;-67
2023/01/10 00:08:03;;;;;;;13.93;7.35;;;;;;;6.23;75.39;97567.34;4967268;28;20379;-68
2023/01/10 00:10:29;;;;;;;13.02;7.55;;;;;;;6.19;75.20;97560.84;4981183;28;20041;-68
2023/01/10 00:15:39;;;;;;;12.43;8.02;;;;;;;6.19;75.23;97566.28;4967154;28;20045;-68
2023/01/10 00:18:05;;;;;;;12.32;7.38;;;;;;;6.18;75.36;97570.94;4967679;28;20031;-68
2023/01/10 00:20:30;;;;;;;13.52;8.02;;;;;;;6.18;75.52;97568.22;4966460;28;20023;-68
2023/01/10 00:22:56;;;;;;;14.48;7.68;;;;;;;6.20;75.36;97578.81;4967105;28;20022;-68
2023/01/10 00:25:22;;;;;;;14.13;8.77;;;;;;;6.20;75.50;97585.09;4966846;28;20022;-68
2023/01/10 00:27:49;;;;;;;14.60;8.85;;;;;;;6.19;75.13;97596.25;4981777;28;20084;-68
2023/01/10 00:30:16;;;;;;;15.70;9.30;;;;;;;6.20;75.23;97584.25;4966850;28;20042;-68
2023/01/10 00:32:43;;;;;;;16.98;10.60;;;;;;;6.19;75.44;97588.06;4966790;28;20692;-67
2023/01/10 00:35:10;;;;;;;20.52;11.00;;;;;;;6.17;75.30;97585.66;4966555;28;20093;-68
2023/01/10 00:37:36;;;;;;;19.55;10.73;;;;;;;6.16;75.62;97597.66;4966725;28;20027;-68
2023/01/10 00:40:01;;;;;;;17.17;9.68;;;;;;;6.15;75.40;97590.56;4966612;28;20478;-68
2023/01/10 00:45:10;;;;;;;15.90;8.70;;;;;;;6.15;75.74;97609.63;4966843;28;20057;-68
2023/01/10 00:47:37;;;;;;;13.00;7.60;;;;;;;6.16;75.75;97603.09;4985795;28;20035;-68
2023/01/10 00:50:07;;;;;;;13.55;8.57;;;;;;;6.17;75.75;97610.16;4966640;28;20065;-68
2023/01/10 00:52:33;;;;;;;14.20;8.68;;;;;;;6.21;75.51;97610.38;4966389;28;20659;-67
2023/01/10 00:54:58;;;;;;;16.70;9.90;;;;;;;6.21;75.38;97613.09;4967521;28;20030;-68
2023/01/10 00:57:24;;;;;;;15.55;10.82;;;;;;;6.21;75.58;97621.28;4968207;28;20474;-68
2023/01/10 00:59:49;;;;;;;17.70;11.30;;;;;;;6.23;75.55;97619.91;4967576;28;20031;-68
2023/01/10 01:02:15;;;;;;;18.25;10.80;;;;;;;6.24;75.59;97617.97;4967355;28;20038;-68
2023/01/10 01:04:40;;;;;;;17.65;11.40;;;;;;;6.25;75.69;97628.59;4968033;28;20463;-68
2023/01/10 01:07:06;;;;;;;15.00;10.32;;;;;;;6.26;75.65;97629.38;4967907;28;20589;-68
2023/01/10 01:09:31;;;;;;;14.00;9.80;;;;;;;6.26;75.63;97626.66;4966568;28;20026;-68
2023/01/10 01:11:56;;;;;;;15.70;10.18;;;;;;;6.25;75.55;97625.03;4970719;28;20034;-68
2023/01/10 01:14:23;;;;;;;17.00;10.70;;;;;;;6.23;75.51;97635.41;4969228;28;20039;-68
2023/01/10 01:16:49;;;;;;;14.73;10.20;;;;;;;6.24;75.59;97634.31;4966568;28;20092;-68
2023/01/10 01:19:14;;;;;;;14.82;10.43;;;;;;;6.23;75.47;97628.06;4976359;28;20526;-67
2023/01/10 01:21:39;;;;;;;13.05;9.52;;;;;;;6.24;75.71;97629.69;4976952;28;20125;-68
2023/01/10 01:24:05;;;;;;;13.85;9.35;;;;;;;6.25;75.49;97631.31;4975611;28;20038;-68
2023/01/10 01:26:30;;;;;;;14.30;9.50;;;;;;;6.26;75.70;97623.94;4968123;28;20023;-68
2023/01/10 01:28:56;;;;;;;20.33;12.32;;;;;;;6.28;75.67;97640.00;4969772;28;20394;-68
2023/01/10 01:31:21;;;;;;;27.65;14.77;;;;;;;6.30;75.62;97635.09;4977658;28;20026;-68
2023/01/10 01:33:46;;;;;;;86.50;29.40;;;;;;;6.29;75.73;97641.63;4968939;28;20534;-67
2023/01/10 01:36:12;;;;;;;293.27;84.80;;;;;;;6.29;75.53;97636.19;4968591;28;20031;-68
2023/01/10 01:38:38;;;;;;;345.80;93.95;;;;;;;6.28;75.96;97645.47;4967291;28;20034;-70
2023/01/10 01:41:55;;;;;;;390.40;103.38;;;;;;;6.27;75.74;97641.91;4968046;28;20506;-67
2023/01/10 01:44:04;;;;;;;169.27;57.95;;;;;;;6.27;75.65;97650.06;4967879;28;20513;-66
2023/01/10 01:46:31;;;;;;;129.65;50.03;;;;;;;6.28;75.67;97642.75;4968581;28;20038;-65
2023/01/10 01:48:57;;;;;;;218.45;62.25;;;;;;;6.26;75.55;97634.84;4970282;28;20113;-66
2023/01/10 01:51:29;;;;;;;175.38;47.28;;;;;;;6.24;75.78;97631.59;4972000;28;20110;-66
2023/01/10 01:54:06;;;;;;;286.52;70.30;;;;;;;6.24;75.60;97628.88;4970557;28;20026;-67
2023/01/10 01:56:37;;;;;;;212.00;51.80;;;;;;;6.24;75.75;97631.59;4970619;28;20043;-66
2023/01/10 01:59:12;;;;;;;156.10;37.35;;;;;;;6.25;75.66;97642.22;4968693;28;20026;-67
2023/01/10 02:01:40;;;;;;;97.50;23.60;;;;;;;6.26;75.63;97640.28;4968334;28;20035;-69
2023/01/10 02:04:23;;;;;;;51.97;16.65;;;;;;;6.25;75.38;97644.09;4969278;28;20114;-68
2023/01/10 02:06:51;;;;;;;24.95;10.48;;;;;;;6.26;75.66;97643.00;4981218;28;20057;-69
2023/01/10 02:09:43;;;;;;;17.35;9.32;;;;;;;6.24;75.79;97651.47;5003819;28;20491;-69
2023/01/10 02:12:09;;;;;;;20.95;11.23;;;;;;;6.21;75.43;97659.41;4970181;28;20057;-69
2023/01/10 02:14:37;;;;;;;37.33;15.40;;;;;;;6.20;75.71;97660.50;4969276;28;20030;-69
2023/01/10 02:17:02;;;;;;;32.70;13.45;;;;;;;6.16;75.82;97660.25;4969658;28;20070;-69
2023/01/10 02:19:49;;;;;;;23.40;11.40;;;;;;;6.19;75.72;97667.03;4969524;28;20074;-69
2023/01/10 02:22:24;;;;;;;27.85;13.05;;;;;;;6.16;75.68;97662.16;4968056;28;20031;-69
2023/01/10 02:25:20;;;;;;;22.17;11.50;;;;;;;6.14;75.79;97672.53;4968757;28;20106;-69
2023/01/10 02:27:57;;;;;;;20.17;10.88;;;;;;;6.14;75.78;97683.41;4972266;28;20132;-69
2023/01/10 02:31:00;;;;;;;20.30;11.05;;;;;;;6.06;75.73;97677.50;4965947;28;20027;-69
2023/01/10 02:33:59;;;;;;;19.60;10.65;;;;;;;6.03;75.67;97683.53;4971513;28;20046;-69
2023/01/10 02:36:25;;;;;;;25.93;11.73;;;;;;;6.01;75.90;97674.00;4969055;28;20062;-69
2023/01/10 02:38:56;;;;;;;18.90;10.35;;;;;;;6.01;75.78;97682.16;4975640;28;20394;-69
2023/01/10 02:41:33;;;;;;;16.27;10.68;;;;;;;6.01;75.74;97693.06;4967802;28;20039;-68
2023/01/10 02:44:06;;;;;;;19.27;12.10;;;;;;;5.97;75.94;97690.06;4969945;28;20023;-69
2023/01/10 02:46:34;;;;;;;20.95;12.55;;;;;;;5.95;76.09;97695.78;4969618;28;20059;-69
2023/01/10 02:48:59;;;;;;;19.98;12.27;;;;;;;5.96;76.12;97702.06;4966975;28;20115;-70
2023/01/10 02:51:28;;;;;;;18.13;11.55;;;;;;;5.96;76.04;97696.63;4966998;28;20129;-69
2023/01/10 02:53:59;;;;;;;21.20;12.70;;;;;;;5.97;76.31;97700.97;4970486;28;20034;-69
2023/01/10 02:56:24;;;;;;;21.38;12.90;;;;;;;5.99;76.29;97711.56;5029430;28;20109;-69
2023/01/10 02:59:05;;;;;;;19.17;12.48;;;;;;;6.00;76.36;97705.00;4968689;28;20364;-68
2023/01/10 03:01:45;;;;;;;17.77;11.70;;;;;;;6.01;76.04;97706.66;4967905;28;20491;-68
2023/01/10 03:04:38;;;;;;;20.52;11.77;;;;;;;6.01;75.96;97712.94;4967863;28;20070;-68
2023/01/10 03:07:22;;;;;;;23.73;12.85;;;;;;;6.02;76.32;97730.06;4964176;28;20454;-68
2023/01/10 03:10:02;;;;;;;28.70;14.88;;;;;;;6.05;76.14;97721.34;4976197;28;20563;-67
2023/01/10 03:12:43;;;;;;;27.88;15.85;;;;;;;6.03;76.44;97721.63;5013604;28;20091;-68
2023/01/10 03:15:12;;;;;;;27.35;15.63;;;;;;;6.05;75.96;97740.41;4966519;28;20035;-68
2023/01/10 03:17:39;;;;;;;30.20;16.52;;;;;;;6.06;76.33;97736.56;4966204;28;20042;-68
2023/01/10 03:20:05;;;;;;;25.02;14.68;;;;;;;6.04;76.37;97734.16;4964600;28;20035;-68
2023/01/10 03:22:36;;;;;;;25.48;14.90;;;;;;;6.05;76.02;97751.28;5041687;28;20031;-68
2023/01/10 03:25:05;;;;;;;24.55;15.15;;;;;;;6.06;76.35;97752.91;4967794;28;20077;-68
2023/01/10 03:27:55;;;;;;;39.38;18.40;;;;;;;6.03;76.37;97753.47;4968353;28;20505;-68
2023/01/10 03:30:34;;;;;;;35.00;17.23;;;;;;;6.01;76.17;97770.09;4968722;28;20083;-67
2023/01/10 03:33:00;;;;;;;28.80;15.10;;;;;;;5.98;75.70;97770.63;5000690;28;20488;-68
2023/01/10 03:35:56;;;;;;;28.77;14.75;;;;;;;5.95;76.07;97779.38;4994755;28;20035;-67
2023/01/10 03:38:54;;;;;;;26.25;13.98;;;;;;;5.93;76.21;97781.56;4968494;28;20066;-68
2023/01/10 03:41:31;;;;;;;26.27;14.85;;;;;;;5.90;76.54;97790.28;5035545;28;20046;-68
2023/01/10 03:44:43;;;;;;;25.90;15.02;;;;;;;5.86;76.29;97787.31;4979611;28;20027;-68
2023/01/10 03:47:20;;;;;;;24.60;14.95;;;;;;;5.87;76.48;97790.84;4967614;28;20049;-67
2023/01/10 03:49:55;;;;;;;23.08;14.63;;;;;;;5.86;76.89;97792.78;4968990;28;20041;-68
2023/01/10 03:52:20;;;;;;;21.58;13.63;;;;;;;5.88;76.72;97804.19;4966312;28;20035;-68
2023/01/10 03:54:47;;;;;;;23.60;14.05;;;;;;;5.89;76.80;97815.88;4966197;28;20398;-68
2023/01/10 03:57:23;;;;;;;21.75;14.52;;;;;;;5.91;76.90;97819.13;4966954;28;20558;-68
2023/01/10 03:59:52;;;;;;;27.77;15.52;;;;;;;5.91;76.52;97819.94;4968100;28;20113;-68
2023/01/10 04:02:17;;;;;;;24.63;15.23;;;;;;;5.93;76.28;97820.47;4965043;28;20035;-68
2023/01/10 04:04:43;;;;;;;22.05;13.90;;;;;;;5.93;76.60;97825.91;4968285;28;20038;-69
2023/01/10 04:07:08;;;;;;;23.95;14.60;;;;;;;5.90;76.27;97829.22;4966808;28;20034;-68
2023/01/10 04:09:34;;;;;;;23.33;14.02;;;;;;;5.88;76.55;97827.84;4968262;28;20046;-68
2023/01/10 04:11:59;;;;;;;23.83;13.82;;;;;;;5.89;76.46;97827.59;4968135;28;20027;-68
2023/01/10 04:14:26;;;;;;;21.15;13.63;;;;;;;5.86;76.64;97830.88;4963716;28;20027;-68
2023/01/10 04:16:51;;;;;;;20.55;13.20;;;;;;;5.84;76.72;97830.34;4969391;28;20030;-68
2023/01/10 04:19:17;;;;;;;20.83;13.30;;;;;;;5.82;76.43;97832.53;4967206;28;20031;-67
2023/01/10 04:21:42;;;;;;;22.40;14.32;;;;;;;5.82;76.82;97846.13;4966154;28;20471;-68
2023/01/10 04:24:07;;;;;;;22.58;13.65;;;;;;;5.81;76.56;97844.50;4968024;28;20072;-67
2023/01/10 04:26:33;;;;;;;29.08;14.50;;;;;;;5.79;76.71;97849.41;4969262;28;20383;-68
2023/01/10 04:28:58;;;;;;;22.70;13.63;;;;;;;5.76;76.88;97847.25;4968573;28;20038;-67
2023/01/10 04:31:25;;;;;;;23.48;14.38;;;;;;;5.75;76.79;97851.84;4974756;28;20062;-67
2023/01/10 04:33:51;;;;;;;24.67;15.27;;;;;;;5.74;76.59;97847.50;4968283;28;20039;-68
2023/01/10 04:36:16;;;;;;;22.98;14.77;;;;;;;5.73;76.55;97854.03;4968979;28;20448;-68
2023/01/10 04:38:42;;;;;;;22.25;14.25;;;;;;;5.72;76.39;97852.41;4967521;28;20037;-68
2023/01/10 04:41:08;;;;;;;22.52;14.30;;;;;;;5.71;77.07;97849.97;4968844;28;20126;-67
2023/01/10 04:43:33;;;;;;;21.58;14.38;;;;;;;5.69;76.79;97854.88;4968687;28;20429;-67
2023/01/10 04:45:59;;;;;;;21.33;13.75;;;;;;;5.68;76.93;97859.53;4968267;28;20089;-67
2023/01/10 04:48:25;;;;;;;22.25;14.20;;;;;;;5.69;76.47;97863.06;4968273;28;20058;-67
2023/01/10 04:50:52;;;;;;;22.02;13.10;;;;;;;5.69;76.94;97873.94;4983287;28;20043;-67
2023/01/10 04:53:18;;;;;;;21.10;13.43;;;;;;;5.70;76.73;97876.41;4968112;28;20076;-68
2023/01/10 04:55:44;;;;;;;23.02;14.77;;;;;;;5.71;77.20;97882.63;5005224;28;20137;-66
2023/01/10 04:58:10;;;;;;;21.17;14.35;;;;;;;5.72;76.97;97881.53;4987904;28;20117;-68
2023/01/10 05:00:35;;;;;;;21.85;14.32;;;;;;;5.74;77.04;97890.25;4971051;28;20046;-67
2023/01/10 05:03:00;;;;;;;22.75;13.57;;;;;;;5.73;76.54;97894.84;5007140;28;20049;-67
2023/01/10 05:05:27;;;;;;;21.95;14.45;;;;;;;5.72;76.86;97893.22;4969437;28;20081;-68
2023/01/10 05:07:52;;;;;;;23.27;14.60;;;;;;;5.72;76.62;97897.88;4971305;28;20486;-67
2023/01/10 05:10:18;;;;;;;22.85;13.63;;;;;;;5.70;77.06;97908.22;4992675;28;20099;-68
2023/01/10 05:12:44;;;;;;;22.13;13.70;;;;;;;5.69;76.79;97907.41;4970633;28;20055;-68
2023/01/10 05:15:10;;;;;;;21.75;12.85;;;;;;;5.69;76.80;97918.28;5017466;28;20039;-67
2023/01/10 05:17:36;;;;;;;24.00;13.25;;;;;;;5.67;76.80;97917.75;4985820;28;20035;-68
2023/01/10 05:20:01;;;;;;;22.08;13.13;;;;;;;5.67;76.81;97923.19;4969931;28;20078;-68
2023/01/10 05:22:27;;;;;;;19.75;12.48;;;;;;;5.67;76.92;97917.75;4992182;28;20054;-67
2023/01/10 05:24:52;;;;;;;19.25;11.98;;;;;;;5.66;76.79;97929.72;4971568;28;20433;-67
2023/01/10 05:27:17;;;;;;;18.48;12.05;;;;;;;5.64;76.94;97934.63;4969964;28;20027;-67
2023/01/10 05:29:43;;;;;;;19.92;11.27;;;;;;;5.65;76.84;97944.44;4972269;28;20049;-67
2023/01/10 05:32:08;;;;;;;19.92;11.95;;;;;;;5.63;77.07;97943.88;4970017;28;20023;-67
2023/01/10 05:34:34;;;;;;;22.17;13.25;;;;;;;5.63;77.16;97946.59;4969180;28;20019;-68
2023/01/10 05:37:00;;;;;;;17.75;12.07;;;;;;;5.64;76.88;97946.31;4968060;28;20088;-68
2023/01/10 05:39:25;;;;;;;17.40;11.18;;;;;;;5.64;77.32;97949.03;4968972;28;20398;-68
2023/01/10 05:41:50;;;;;;;16.58;10.95;;;;;;;5.63;77.30;97954.78;4971675;28;20039;-68
2023/01/10 05:44:16;;;;;;;17.48;10.90;;;;;;;5.60;77.45;97958.03;4971311;28;20046;-68
2023/01/10 05:46:41;;;;;;;15.30;10.05;;;;;;;5.58;76.93;97952.06;4970052;28;20030;-67
2023/01/10 05:49:06;;;;;;;17.45;10.30;;;;;;;5.57;77.38;97964.81;4969279;28;20039;-68
2023/01/10 05:51:32;;;;;;;18.10;11.35;;;;;;;5.57;77.10;97970.28;4969120;28;20837;-68
2023/01/10 05:53:57;;;;;;;31.23;16.10;;;;;;;5.56;77.50;97973.28;4969417;28;20450;-68
2023/01/10 05:56:24;;;;;;;39.47;22.88;;;;;;;5.55;77.32;97979.81;4971826;28;20054;-68
2023/01/10 05:58:50;;;;;;;33.65;19.85;;;;;;;5.54;77.36;97987.13;4967092;28;20035;-67
2023/01/10 06:01:15;;;;;;;29.00;17.98;;;;;;;5.54;77.55;97989.84;4968772;28;20498;-68
2023/01/10 06:03:41;;;;;;;33.72;20.35;;;;;;;5.57;77.19;97991.22;4968041;28;20027;-68
2023/01/10 06:06:06;;;;;;;29.50;17.95;;;;;;;5.57;77.33;97989.31;4971925;28;20035;-68
2023/01/10 06:08:32;;;;;;;32.47;18.67;;;;;;;5.56;77.52;97998.56;5004966;28;20028;-67
2023/01/10 06:10:57;;;;;;;34.95;20.45;;;;;;;5.56;77.07;97995.84;4998415;28;20026;-67
2023/01/10 06:13:23;;;;;;;27.10;15.80;;;;;;;5.56;77.02;98011.34;4994594;28;20027;-67
2023/01/10 06:15:48;;;;;;;23.40;13.23;;;;;;;5.56;77.36;97995.84;4971250;28;20026;-67
2023/01/10 06:18:15;;;;;;;39.47;19.42;;;;;;;5.57;77.73;98010.28;4965591;28;20035;-69
2023/01/10 06:20:42;;;;;;;28.67;14.88;;;;;;;5.57;77.27;98019.22;4971004;28;20569;-68
2023/01/10 06:23:07;;;;;;;21.45;12.57;;;;;;;5.58;76.94;98022.78;4982095;28;20483;-68
2023/01/10 06:25:39;;;;;;;18.45;11.07;;;;;;;5.58;77.75;98023.59;4964263;28;20035;-68
2023/01/10 06:28:05;;;;;;;21.70;12.68;;;;;;;5.59;77.28;98024.41;4968549;28;20053;-69
2023/01/10 06:30:31;;;;;;;20.20;11.95;;;;;;;5.58;77.47;98031.75;5020578;28;20035;-68
2023/01/10 06:33:01;;;;;;;19.98;11.68;;;;;;;5.57;77.70;98034.75;4970066;28;20027;-69
2023/01/10 06:35:27;;;;;;;21.40;11.75;;;;;;;5.60;77.63;98040.44;4966965;28;20038;-69
2023/01/10 06:37:53;;;;;;;18.98;11.90;;;;;;;5.58;77.70;98042.63;4967651;28;20491;-69
2023/01/10 06:40:18;;;;;;;22.20;12.60;;;;;;;5.58;77.17;98044.53;4968291;28;20034;-69
2023/01/10 06:42:44;;;;;;;24.08;12.57;;;;;;;5.56;77.57;98044.81;4969164;28;20130;-68
2023/01/10 06:45:10;;;;;;;19.48;11.60;;;;;;;5.56;77.31;98052.97;4966881;28;20498;-68
2023/01/10 06:47:35;;;;;;;21.80;12.00;;;;;;;5.56;77.76;98061.13;4978371;28;20030;-69
2023/01/10 06:50:00;;;;;;;21.15;12.75;;;;;;;5.55;77.55;98064.13;4968640;28;20493;-67
2023/01/10 06:52:26;;;;;;;20.88;13.65;;;;;;;5.54;77.80;98071.47;4968694;28;20039;-67
2023/01/10 06:54:52;;;;;;;22.65;12.70;;;;;;;5.52;77.39;98076.34;4970358;28;20030;-68
2023/01/10 06:57:17;;;;;;;22.17;11.80;;;;;;;5.49;77.65;98075.00;4967971;28;20120;-68
2023/01/10 06:59:43;;;;;;;21.48;12.35;;;;;;;5.48;77.67;98075.31;4971626;28;20118;-68
2023/01/10 07:02:10;;;;;;;21.58;11.60;;;;;;;5.47;77.73;98079.09;4975120;28;20031;-68
2023/01/10 07:04:35;;;;;;;19.48;11.80;;;;;;;5.45;77.51;98081.28;4968678;28;20389;-68
2023/01/10 07:07:01;;;;;;;19.40;10.68;;;;;;;5.45;77.58;98084.81;4995322;28;20106;-68
2023/01/10 07:09:27;;;;;;;17.70;11.07;;;;;;;5.44;77.66;98093.25;5012629;28;20031;-68
2023/01/10 07:11:52;;;;;;;22.30;12.57;;;;;;;5.41;77.59;98099.22;4965373;28;20035;-67
2023/01/10 07:14:18;;;;;;;18.25;11.27;;;;;;;5.39;78.13;98096.75;4965181;28;20365;-67
2023/01/10 07:16:43;;;;;;;21.02;11.95;;;;;;;5.39;77.48;98098.69;4967383;28;20026;-67
2023/01/10 07:19:09;;;;;;;19.63;11.10;;;;;;;5.38;78.23;98103.28;4967240;28;20110;-67
2023/01/10 07:21:34;;;;;;;20.13;11.27;;;;;;;5.37;78.09;98101.66;4977521;28;20030;-67
2023/01/10 07:23:59;;;;;;;18.58;11.27;;;;;;;5.40;77.84;98103.03;5069901;28;20036;-66
2023/01/10 07:26:25;;;;;;;20.90;11.73;;;;;;;5.42;77.81;98095.41;5068691;28;20025;-67
2023/01/10 07:28:50;;;;;;;19.45;10.88;;;;;;;5.40;77.79;98105.75;5011337;28;20043;-69
2023/01/10 07:31:21;;;;;;;20.02;11.68;;;;;;;5.39;77.65;98109.56;4973398;28;20118;-67
2023/01/10 07:33:47;;;;;;;20.67;11.65;;;;;;;5.36;77.88;98114.44;4969295;28;20031;-68
2023/01/10 07:36:12;;;;;;;19.02;11.30;;;;;;;5.36;77.87;98125.31;4967421;28;20037;-67
2023/01/10 07:38:38;;;;;;;19.35;11.75;;;;;;;5.35;78.18;98122.88;4968520;28;20511;-68
2023/01/10 07:41:04;;;;;;;21.13;12.02;;;;;;;5.34;78.21;98119.34;4969162;28;20030;-68
2023/01/10 07:43:30;;;;;;;20.98;11.63;;;;;;;5.32;77.86;98126.13;4969262;28;20391;-68
2023/01/10 07:46:08;;;;;;;22.42;12.68;;;;;;;5.27;77.92;98121.50;5032731;28;20029;-67
2023/01/10 07:48:33;;;;;;;21.48;12.60;;;;;;;5.27;78.20;98120.69;5046792;28;20035;-68
2023/01/10 07:51:00;;;;;;;24.65;14.32;;;;;;;5.26;78.04;98122.59;4969186;28;20022;-67
2023/01/10 07:53:27;;;;;;;25.40;14.07;;;;;;;5.26;78.15;98129.94;4964013;28;20027;-68
2023/01/10 07:55:53;;;;;;;32.53;15.18;;;;;;;5.27;78.07;98134.28;4964977;28;20113;-68
2023/01/10 07:58:19;;;;;;;25.40;13.68;;;;;;;5.27;77.99;98143.25;4966978;28;20126;-67
2023/01/10 08:00:45;;;;;;;24.50;13.38;;;;;;;5.27;78.41;98137.00;4988991;28;20375;-67
2023/01/10 08:03:12;;;;;;;21.80;13.18;;;;;;;5.26;78.46;98138.91;4968027;28;20038;-66
2023/01/10 08:05:38;;;;;;;24.92;15.30;;;;;;;5.23;78.07;98131.28;4967055;28;20039;-67
2023/01/10 08:08:05;;;;;;;23.38;13.82;;;;;;;5.22;78.10;98140.53;5011652;28;20070;-67
2023/01/10 08:10:33;;;;;;;22.58;13.25;;;;;;;5.20;78.25;98145.41;5064900;28;20039;-67
2023/01/10 08:12:58;;;;;;;21.60;13.40;;;;;;;5.19;78.63;98150.03;5067738;28;20031;-67
2023/01/10 08:15:24;;;;;;;24.48;13.80;;;;;;;5.20;78.40;98153.56;5068875;28;20396;-67
2023/01/10 08:17:49;;;;;;;22.60;13.27;;;;;;;5.20;78.11;98156.28;5062561;28;20736;-66
2023/01/10 08:20:14;;;;;;;22.00;13.10;;;;;;;5.22;78.33;98163.09;4963827;28;20509;-67
2023/01/10 08:22:41;;;;;;;23.63;13.85;;;;;;;5.26;78.22;98168.81;4962910;28;20033;-67
2023/01/10 08:25:07;;;;;;;27.23;14.55;;;;;;;5.26;78.14;98173.44;4996390;28;20665;-67
2023/01/10 08:27:32;;;;;;;26.90;15.20;;;;;;;5.25;78.63;98175.34;5042175;28;20052;-66
2023/01/10 08:29:58;;;;;;;22.60;13.63;;;;;;;5.27;78.68;98175.88;4966930;28;20161;-66
2023/01/10 08:32:24;;;;;;;24.25;14.07;;;;;;;5.27;78.48;98170.44;4969448;28;20023;-66
2023/01/10 08:34:49;;;;;;;25.58;14.65;;;;;;;5.29;78.46;98178.34;5065802;28;20036;-70
2023/01/10 08:37:14;;;;;;;25.65;13.95;;;;;;;5.30;78.57;98175.34;4978594;28;20026;-68
2023/01/10 08:39:40;;;;;;;22.63;13.02;;;;;;;5.30;78.49;98174.53;5004092;28;20032;-67
2023/01/10 08:42:05;;;;;;;22.60;13.63;;;;;;;5.29;78.52;98176.44;4968333;28;20066;-67
2023/01/10 08:44:31;;;;;;;21.80;12.82;;;;;;;5.27;78.34;98189.47;4967919;28;20066;-68
2023/01/10 08:46:57;;;;;;;20.83;12.80;;;;;;;5.26;78.69;98198.72;5068024;28;20038;-67
2023/01/10 08:49:22;;;;;;;24.38;13.25;;;;;;;5.24;78.48;98202.81;5068993;28;20027;-67
2023/01/10 08:51:48;;;;;;;21.23;13.20;;;;;;;5.20;78.70;98203.34;5069805;28;20024;-68
2023/01/10 08:54:13;;;;;;;21.45;13.30;;;;;;;5.21;78.51;98215.84;5069599;28;20507;-67
2023/01/10 08:56:39;;;;;;;23.15;14.02;;;;;;;5.18;78.70;98229.97;5069094;28;20037;-67
2023/01/10 08:59:05;;;;;;;22.45;13.57;;;;;;;5.18;78.69;98234.56;5067735;28;20060;-67
2023/01/10 09:01:30;;;;;;;24.58;14.55;;;;;;;5.18;78.71;98240.84;4986550;28;20450;-69
2023/01/10 09:03:56;;;;;;;25.40;15.25;;;;;;;5.19;78.96;98239.75;4985218;28;20058;-67
2023/01/10 09:06:22;;;;;;;21.48;12.80;;;;;;;5.22;78.72;98249.28;5069887;28;20036;-67
2023/01/10 09:08:48;;;;;;;28.40;15.95;;;;;;;5.18;78.41;98249.00;5070367;28;20104;-68
2023/01/10 09:11:13;;;;;;;23.33;13.40;;;;;;;5.20;78.93;98252.28;5069310;28;20500;-68
2023/01/10 09:13:39;;;;;;;20.52;12.63;;;;;;;5.22;78.71;98258.28;5070284;28;20033;-67
2023/01/10 09:16:05;;;;;;;19.33;11.77;;;;;;;5.21;78.84;98256.63;5046817;28;20039;-68
2023/01/10 09:18:30;;;;;;;26.08;13.98;;;;;;;5.17;78.83;98277.28;4969290;28;20050;-68
2023/01/10 09:20:56;;;;;;;20.70;12.30;;;;;;;5.15;78.84;98276.72;4968103;28;20042;-68
2023/01/10 09:23:22;;;;;;;24.40;13.73;;;;;;;5.12;78.78;98270.97;4981289;28;20031;-68
2023/01/10 09:25:53;;;;;;;23.25;13.77;;;;;;;5.10;79.01;98273.16;5068934;28;20020;-67
2023/01/10 09:28:20;;;;;;;20.98;12.65;;;;;;;5.09;79.16;98285.94;5069605;28;20039;-68
2023/01/10 09:30:46;;;;;;;23.92;13.95;;;;;;;5.10;79.06;98298.44;5020085;28;20035;-67
2023/01/10 09:33:12;;;;;;;17.65;11.15;;;;;;;5.11;78.94;98294.66;4968491;28;20042;-66
2023/01/10 09:35:39;;;;;;;19.27;11.90;;;;;;;5.11;78.77;98294.66;4967992;28;20027;-67
2023/01/10 09:38:09;;;;;;;20.58;11.20;;;;;;;5.13;78.98;98300.63;4968413;28;20041;-68
2023/01/10 09:41:00;;;;;;;17.50;10.27;;;;;;;5.11;78.99;98300.06;4968502;28;20035;-67
2023/01/10 09:43:54;;;;;;;21.92;13.48;;;;;;;5.11;79.31;98301.97;4972115;28;20034;-66
2023/01/10 09:46:49;;;;;;;21.75;12.63;;;;;;;5.13;78.99;98300.63;4971756;28;20446;-67
2023/01/10 09:49:46;;;;;;;22.23;11.23;;;;;;;5.11;79.09;98310.94;4971145;28;20030;-67
2023/01/10 09:52:41;;;;;;;19.33;10.45;;;;;;;5.07;79.19;98313.41;4994755;28;20054;-68
2023/01/10 09:55:16;;;;;;;19.08;10.88;;;;;;;5.08;79.17;98314.19;5010346;28;20042;-67
2023/01/10 09:57:42;;;;;;;15.15;9.75;;;;;;;5.10;79.49;98320.19;4970579;28;20069;-67
2023/01/10 10:00:08;;;;;;;17.02;10.07;;;;;;;5.09;78.68;98310.41;4970716;28;20131;-65
2023/01/10 10:02:44;;;;;;;16.73;10.40;;;;;;;5.07;79.53;98318.84;4969782;28;20174;-65
2023/01/10 10:05:17;;;;;;;13.95;8.75;;;;;;;5.09;78.77;98317.75;4970735;28;20055;-66
2023/01/10 10:07:43;;;;;;;14.55;8.60;;;;;;;5.09;79.16;98323.19;4970922;28;20115;-66
2023/01/10 10:10:20;;;;;;;16.42;9.20;;;;;;;5.10;79.24;98328.34;4970713;28;20031;-67
2023/01/10 10:12:59;;;;;;;20.08;10.65;;;;;;;5.09;79.04;98328.63;4970920;28;20057;-67
2023/01/10 10:15:44;;;;;;;15.75;9.50;;;;;;;5.15;79.59;98335.69;4970987;28;20034;-67
2023/01/10 10:18:21;;;;;;;13.85;8.38;;;;;;;5.15;79.04;98325.66;4972031;28;20172;-66
2023/01/10 10:20:56;;;;;;;15.40;8.95;;;;;;;5.16;79.51;98331.91;4966369;28;20045;-67
2023/01/10 10:23:41;;;;;;;13.45;8.43;;;;;;;5.15;79.10;98341.13;4972295;28;20048;-65
2023/01/10 10:26:27;;;;;;;14.13;8.98;;;;;;;5.14;79.28;98331.34;4967603;28;20407;-66
2023/01/10 10:29:31;;;;;;;12.15;7.25;;;;;;;5.11;78.94;98342.75;4968832;28;20035;-65
2023/01/10 10:32:29;;;;;;;12.43;7.88;;;;;;;5.07;78.75;98337.84;4976409;28;20030;-64
2023/01/10 10:35:17;;;;;;;11.93;8.02;;;;;;;5.06;79.55;98347.09;4989992;28;20074;-64
2023/01/10 10:37:50;;;;;;;12.13;8.18;;;;;;;5.10;79.10;98351.97;4966713;28;20420;-67
2023/01/10 10:40:22;;;;;;;13.10;8.02;;;;;;;5.14;79.03;98350.38;4982454;28;20027;-65
2023/01/10 10:42:51;;;;;;;12.15;7.80;;;;;;;5.18;78.94;98349.59;4973122;28;20062;-66
2023/01/10 10:45:22;;;;;;;11.37;7.67;;;;;;;5.20;79.16;98350.16;4965666;28;20081;-66
2023/01/10 10:48:06;;;;;;;11.98;7.68;;;;;;;5.21;78.97;98342.81;4970914;28;20035;-66
2023/01/10 10:50:40;;;;;;;13.68;8.68;;;;;;;5.24;79.45;98344.19;5025473;28;20036;-66
2023/01/10 10:53:05;;;;;;;12.60;8.00;;;;;;;5.25;79.05;98345.84;5067090;28;20553;-66
2023/01/10 10:55:35;;;;;;;18.83;9.75;;;;;;;5.23;78.93;98348.81;4974882;28;20134;-65
2023/01/10 10:58:03;;;;;;;22.13;11.00;;;;;;;5.25;78.96;98354.78;4969194;28;20041;-65
2023/01/10 11:00:30;;;;;;;26.50;12.68;;;;;;;5.23;78.91;98362.41;4967193;28;20050;-67
2023/01/10 11:03:12;;;;;;;10.10;6.07;;;;;;;5.18;78.88;98362.38;4975218;28;20110;-67
2023/01/10 11:05:40;;;;;;;9.88;6.50;;;;;;;5.18;79.11;98374.06;4966804;28;20036;-68
2023/01/10 11:08:10;;;;;;;8.65;5.40;;;;;;;5.18;79.07;98367.81;5044610;28;20109;-67
2023/01/10 11:10:37;;;;;;;9.27;5.93;;;;;;;5.16;79.26;98375.41;5056956;28;20108;-67
2023/01/10 11:13:29;;;;;;;11.95;6.28;;;;;;;5.12;79.21;98379.72;4966850;28;20039;-67
2023/01/10 11:15:55;;;;;;;12.27;6.82;;;;;;;5.13;79.34;98381.34;4974991;28;20150;-68
2023/01/10 11:18:24;;;;;;;13.90;6.35;;;;;;;5.14;79.28;98391.16;4985238;28;20528;-69
2023/01/10 11:21:03;;;;;;;11.30;5.82;;;;;;;5.10;79.58;98390.03;4974209;28;20058;-69
2023/01/10 11:23:49;;;;;;;19.13;8.32;;;;;;;5.11;79.47;98392.50;4968080;28;20034;-66
2023/01/10 11:26:29;;;;;;;13.23;6.93;;;;;;;5.11;79.14;98391.69;4982196;28;20034;-67
2023/01/10 11:29:15;;;;;;;25.58;12.57;;;;;;;5.14;79.14;98396.59;4966787;28;20019;-66
2023/01/10 11:31:41;;;;;;;17.05;7.32;;;;;;;5.17;79.44;98402.34;4967599;28;20026;-68
2023/01/10 11:34:20;;;;;;;11.15;6.07;;;;;;;5.16;79.37;98410.75;5004018;28;20024;-68
2023/01/10 11:37:01;;;;;;;17.35;6.85;;;;;;;5.14;79.28;98410.19;4971505;28;20034;-68
2023/01/10 11:39:28;;;;;;;16.25;7.10;;;;;;;5.12;78.77;98412.34;4969577;28;20118;-66
2023/01/10 11:41:54;;;;;;;12.68;6.93;;;;;;;5.09;79.44;98407.47;4966214;28;20027;-67
2023/01/10 11:44:24;;;;;;;11.38;6.13;;;;;;;5.09;79.16;98408.25;4972582;28;20121;-67